createdAt,value
2023-05-04T00:03:10.763Z,99.90
2023-05-04T00:08:12.622Z,99.90
2023-05-04T00:13:14.455Z,99.90
2023-05-04T00:18:16.188Z,99.90
2023-05-04T00:23:17.843Z,99.90
2023-05-04T00:28:19.498Z,99.90
2023-05-04T00:33:21.456Z,99.90
2023-05-04T00:38:23.042Z,99.90
2023-05-04T00:43:25.413Z,99.90
2023-05-04T00:48:27.022Z,99.90
2023-05-04T00:53:28.641Z,99.90
2023-05-04T00:58:31.410Z,99.90
2023-05-04T01:03:33.706Z,99.90
2023-05-04T01:08:38.680Z,99.90
2023-05-04T01:13:40.697Z,99.90
2023-05-04T01:18:42.300Z,99.90
2023-05-04T01:23:43.975Z,99.90
2023-05-04T01:28:50.533Z,99.90
2023-05-04T01:33:52.945Z,99.90
2023-05-04T01:38:55.396Z,99.90
2023-05-04T01:43:57.766Z,99.90
2023-05-04T01:48:59.426Z,99.90
2023-05-04T01:54:02.151Z,99.90
2023-05-04T01:59:03.791Z,99.90
2023-05-04T02:04:05.517Z,99.90
2023-05-04T02:09:07.469Z,99.90
2023-05-04T02:14:09.067Z,99.90
2023-05-04T02:19:10.905Z,99.90
2023-05-04T02:24:12.649Z,99.90
2023-05-04T02:29:14.298Z,99.90
2023-05-04T02:34:16.046Z,99.90
2023-05-04T02:39:17.848Z,99.90
2023-05-04T02:44:19.593Z,99.90
2023-05-04T02:49:21.192Z,99.90
2023-05-04T02:54:22.822Z,99.90
2023-05-04T02:59:24.458Z,99.90
2023-05-04T03:04:26.218Z,99.90
2023-05-04T03:09:27.899Z,99.90
2023-05-04T03:14:29.804Z,99.90
2023-05-04T03:19:31.365Z,99.90
2023-05-04T03:24:33.125Z,99.90
2023-05-04T03:29:34.844Z,99.90
2023-05-04T03:34:36.626Z,99.90
2023-05-04T03:39:38.313Z,99.90
2023-05-04T03:44:39.937Z,99.90
2023-05-04T03:49:41.697Z,99.90
2023-05-04T03:54:43.389Z,99.90
2023-05-04T03:59:45.020Z,99.90
2023-05-04T04:04:46.613Z,99.90
2023-05-04T04:09:48.389Z,99.90
2023-05-04T04:14:51.926Z,99.90
2023-05-04T04:19:53.497Z,99.90
2023-05-04T04:24:55.397Z,99.90
2023-05-04T04:29:57.623Z,99.90
2023-05-04T04:34:59.432Z,99.90
2023-05-04T04:40:01.528Z,99.90
2023-05-04T04:45:06.094Z,99.90
2023-05-04T04:50:08.301Z,99.90
2023-05-04T04:55:10.195Z,99.90
2023-05-04T05:00:14.361Z,99.90
2023-05-04T05:05:16.190Z,99.90
2023-05-04T05:10:19.114Z,99.90
2023-05-04T05:15:20.857Z,99.90
2023-05-04T05:20:23.518Z,99.90
2023-05-04T05:25:25.148Z,99.90
2023-05-04T05:30:28.237Z,99.90
2023-05-04T05:35:29.852Z,99.90
2023-05-04T05:40:32.708Z,99.90
2023-05-04T05:45:34.355Z,99.90
2023-05-04T05:50:36.043Z,99.90
2023-05-04T05:55:37.635Z,99.90
2023-05-04T06:00:39.392Z,99.90
2023-05-04T06:05:41.238Z,99.90
2023-05-04T06:10:43.031Z,99.90
2023-05-04T06:15:54.429Z,99.90
2023-05-04T06:20:59.802Z,99.90
2023-05-04T06:26:01.533Z,99.90
2023-05-04T06:31:04.224Z,99.90
2023-05-04T06:36:06.316Z,99.90
2023-05-04T06:41:08.268Z,99.90
2023-05-04T06:46:10.041Z,99.90
2023-05-04T06:51:11.691Z,99.90
2023-05-04T06:56:13.320Z,99.90
2023-05-04T07:01:16.978Z,99.90
2023-05-04T07:06:21.082Z,99.90
2023-05-04T07:11:23.509Z,99.90
2023-05-04T07:16:26.208Z,99.90
2023-05-04T07:21:29.782Z,99.90
2023-05-04T07:26:31.570Z,99.90
2023-05-04T07:31:33.648Z,99.90
2023-05-04T07:36:35.580Z,99.90
2023-05-04T07:41:37.614Z,99.90
2023-05-04T07:46:39.454Z,99.90
2023-05-04T07:51:41.189Z,99.90
2023-05-04T07:56:42.915Z,99.90
2023-05-04T08:01:44.766Z,99.90
2023-05-04T08:06:46.793Z,99.90
2023-05-04T08:11:49.067Z,99.90
2023-05-04T08:16:50.805Z,99.90
2023-05-04T08:21:53.106Z,99.90
2023-05-04T08:27:07.325Z,99.90
2023-05-04T08:32:10.116Z,99.90
2023-05-04T08:37:11.922Z,99.90
2023-05-04T08:42:13.623Z,99.90
2023-05-04T08:47:15.389Z,99.90
2023-05-04T08:52:17.476Z,99.90
2023-05-04T08:57:19.626Z,99.90
2023-05-04T09:02:24.683Z,99.90
2023-05-04T09:07:26.411Z,99.90
2023-05-04T09:12:28.154Z,99.90
2023-05-04T09:17:30.267Z,99.90
2023-05-04T09:22:31.913Z,99.90
2023-05-04T09:27:33.605Z,99.90
2023-05-04T09:32:44.660Z,99.90
2023-05-04T09:37:46.985Z,99.70
2023-05-04T09:42:56.651Z,98.90
2023-05-04T09:47:59.536Z,97.90
2023-05-04T09:53:02.435Z,96.50
2023-05-04T09:58:05.584Z,98.30
2023-05-04T10:03:07.746Z,97.00
2023-05-04T10:08:09.383Z,95.40
2023-05-04T10:13:11.147Z,95.80
2023-05-04T10:18:21.061Z,95.90
2023-05-04T10:23:41.531Z,95.20
2023-05-04T10:29:04.902Z,94.60
2023-05-04T10:34:07.595Z,92.00
2023-05-04T10:39:22.585Z,91.70
2023-05-04T10:44:24.293Z,92.40
2023-05-04T10:49:26.057Z,91.30
2023-05-04T10:54:32.901Z,91.00
2023-05-04T10:59:36.582Z,89.80
2023-05-04T11:04:38.612Z,87.80
2023-05-04T11:09:44.390Z,87.80
2023-05-04T11:14:46.081Z,83.60
2023-05-04T11:19:51.921Z,86.10
2023-05-04T11:24:54.986Z,83.60
2023-05-04T11:29:59.145Z,84.10
2023-05-04T11:35:01.302Z,82.20
2023-05-04T11:40:08.027Z,81.90
2023-05-04T11:45:17.878Z,81.70
2023-05-04T11:50:20.723Z,80.10
2023-05-04T11:55:27.309Z,79.50
2023-05-04T12:00:40.296Z,79.80
2023-05-04T12:05:48.015Z,76.80
2023-05-04T12:10:49.810Z,75.10
2023-05-04T12:15:51.426Z,75.50
2023-05-04T12:20:53.106Z,74.50
2023-05-04T12:25:58.367Z,74.30
2023-05-04T12:31:00.756Z,75.00
2023-05-04T12:36:03.147Z,75.20
2023-05-04T12:41:05.979Z,75.10
2023-05-04T12:46:07.781Z,72.80
2023-05-04T12:51:09.582Z,70.20
2023-05-04T12:56:11.251Z,69.10
2023-05-04T13:01:12.984Z,70.80
2023-05-04T13:06:14.916Z,67.70
2023-05-04T13:11:19.512Z,65.90
2023-05-04T13:16:21.135Z,63.70
2023-05-04T13:21:22.833Z,63.90
2023-05-04T13:26:24.596Z,63.70
2023-05-04T13:31:26.570Z,60.40
2023-05-04T13:36:28.381Z,61.00
2023-05-04T13:41:31.089Z,59.80
2023-05-04T13:46:34.377Z,60.70
2023-05-04T13:51:37.302Z,62.00
2023-05-04T13:56:39.955Z,60.40
2023-05-04T14:01:41.982Z,59.90
2023-05-04T14:06:43.672Z,61.10
2023-05-04T14:11:45.853Z,61.70
2023-05-04T14:16:47.797Z,61.60
2023-05-04T14:21:49.601Z,64.30
2023-05-04T14:26:51.386Z,63.80
2023-05-04T14:31:53.521Z,64.50
2023-05-04T14:36:55.399Z,62.80
2023-05-04T14:41:58.020Z,64.90
2023-05-04T14:46:59.597Z,65.60
2023-05-04T14:52:03.003Z,65.80
2023-05-04T14:57:04.996Z,66.50
2023-05-04T15:02:08.153Z,66.70
2023-05-04T15:07:10.006Z,68.00
2023-05-04T15:12:12.006Z,67.20
2023-05-04T15:17:13.705Z,68.10
2023-05-04T15:22:15.514Z,66.80
2023-05-04T15:27:17.098Z,66.00
2023-05-04T15:32:18.940Z,66.40
2023-05-04T15:37:20.527Z,66.70
2023-05-04T15:42:22.139Z,66.50
2023-05-04T15:47:23.846Z,67.30
2023-05-04T15:52:25.907Z,66.50
2023-05-04T15:57:27.582Z,66.60
2023-05-04T16:02:29.384Z,65.90
2023-05-04T16:07:31.187Z,65.50
2023-05-04T16:12:32.894Z,67.40
2023-05-04T16:17:35.336Z,67.40
2023-05-04T16:22:37.131Z,67.40
2023-05-04T16:27:38.977Z,66.10
2023-05-04T16:32:40.679Z,67.10
2023-05-04T16:37:42.425Z,67.00
2023-05-04T16:42:44.196Z,67.30
2023-05-04T16:47:46.406Z,68.20
2023-05-04T16:52:48.170Z,69.40
2023-05-04T16:57:49.803Z,69.30
2023-05-04T17:02:55.136Z,70.10
2023-05-04T17:07:59.821Z,70.60
2023-05-04T17:13:02.568Z,70.30
2023-05-04T17:18:04.441Z,72.00
2023-05-04T17:23:06.228Z,71.40
2023-05-04T17:28:08.015Z,71.50
2023-05-04T17:33:09.848Z,71.60
2023-05-04T17:38:20.317Z,71.70
2023-05-04T17:43:23.124Z,71.50
2023-05-04T17:48:28.189Z,71.70
2023-05-04T17:53:29.825Z,72.20
2023-05-04T17:58:31.447Z,73.00
2023-05-04T18:03:33.202Z,73.50
2023-05-04T18:08:34.998Z,74.30
2023-05-04T18:13:36.629Z,74.80
2023-05-04T18:18:38.261Z,76.80
2023-05-04T18:23:39.945Z,78.40
2023-05-04T18:28:42.208Z,78.70
2023-05-04T18:33:43.981Z,79.80
2023-05-04T18:38:49.693Z,78.30
2023-05-04T18:43:51.514Z,78.10
2023-05-04T18:48:53.196Z,78.20
2023-05-04T18:53:54.932Z,79.50
2023-05-04T18:58:57.581Z,81.50
2023-05-04T19:03:59.403Z,83.10
2023-05-04T19:09:01.219Z,84.70
2023-05-04T19:14:03.100Z,85.20
2023-05-04T19:19:05.064Z,87.50
2023-05-04T19:24:06.965Z,89.20
2023-05-04T19:29:08.659Z,90.40
2023-05-04T19:34:10.371Z,91.20
2023-05-04T19:39:12.078Z,91.50
2023-05-04T19:44:14.795Z,92.10
2023-05-04T19:49:16.629Z,93.00
2023-05-04T19:54:18.264Z,91.90
2023-05-04T19:59:20.920Z,93.70
2023-05-04T20:04:22.557Z,92.30
2023-05-04T20:09:24.196Z,93.10
2023-05-04T20:14:26.256Z,94.20
2023-05-04T20:19:28.072Z,94.60
2023-05-04T20:24:29.709Z,94.30
2023-05-04T20:29:32.221Z,95.70
2023-05-04T20:34:33.936Z,97.70
2023-05-04T20:39:35.648Z,98.20
2023-05-04T20:44:37.458Z,99.90
2023-05-04T20:49:40.088Z,99.90
2023-05-04T20:54:42.764Z,99.90
2023-05-04T20:59:44.415Z,99.90
2023-05-04T21:04:49.192Z,99.90
2023-05-04T21:09:55.362Z,99.90
2023-05-04T21:14:56.989Z,99.90
2023-05-04T21:19:58.658Z,99.90
2023-05-04T21:25:00.374Z,99.90
2023-05-04T21:30:07.149Z,99.90
2023-05-04T21:35:09.129Z,99.90
2023-05-04T21:40:13.793Z,99.90
2023-05-04T21:45:15.554Z,99.90
2023-05-04T21:50:17.268Z,99.90
2023-05-04T21:55:19.127Z,99.90
2023-05-04T22:00:20.964Z,99.90
2023-05-04T22:05:23.073Z,99.90
2023-05-04T22:10:24.772Z,99.90
2023-05-04T22:15:34.494Z,99.90
2023-05-04T22:20:50.752Z,99.90
2023-05-04T22:25:53.322Z,99.90
2023-05-04T22:30:55.114Z,99.90
2023-05-04T22:35:57.776Z,99.90
2023-05-04T22:40:59.455Z,99.90
2023-05-04T22:46:01.120Z,99.90
2023-05-04T22:51:03.893Z,99.90
2023-05-04T22:56:06.928Z,99.90
2023-05-04T23:01:10.258Z,99.90
2023-05-04T23:06:12.268Z,99.90
2023-05-04T23:11:14.008Z,99.90
2023-05-04T23:16:15.685Z,99.90
2023-05-04T23:21:17.379Z,99.90
2023-05-04T23:26:19.194Z,99.90
2023-05-04T23:31:20.958Z,99.90
2023-05-04T23:36:22.840Z,99.90
2023-05-04T23:41:24.563Z,99.90
2023-05-04T23:46:26.211Z,99.90
2023-05-04T23:51:28.544Z,99.90
2023-05-04T23:56:30.798Z,99.90
